LIMP

Parma Airport

Airport
ICAO code
LIMP
IATA Code
PMF
Summary
ICAO Region
EUR
ICAO Territory
Location

Parma, Emilia-Romagna

Serving
Parma
Elevation
161 ft
Coordinates
44° 49' 34" N , 10° 17' 49" E
KCC
Metar
Observation
LIMP 031750Z 15006KT 2500 BR NSC 06/03 Q1022
Station
Parma
Date/Time
2023-02-03 17:50:00
Wind direction
150°
Wind speed
06 kts
Lowest cloud amount
nil significant cloud
Temperature
6°C
Dew point
3°C
Humidity
81%
QNH
1022 hPa
Weather condition
n/a

Parma Airport, also known as Giuseppe Verdi Airport or Parma "Giuseppe Verdi" Airport, is located 1.3 NM ( northwest of Parma, a city in the Emilia-Romagna region of Italy.

Climatology

Humid subtropical climate (Köppen climate classification Cfa)

Runways

Designator Length Width Surface Rops
2/20 2122 45 ASP Yes/Yes

Airport map

Aerial View

SKYbrary Partners:

Safety knowledge contributed by: